sensor_id;sensor_type;location;lat;lon;timestamp;P1;P4;P2;P0;N10;N4;N25;N1;N05;TS
70689;SPS30;58266;52.166;5.290;2023-05-29T00:00:48;4.32;4.16;3.37;2.26;18.20;18.17;17.96;16.88;13.38;0.80
70689;SPS30;58266;52.166;5.290;2023-05-29T00:02:49;4.93;4.74;3.83;2.55;20.55;20.51;20.28;19.03;15.05;0.80
70689;SPS30;58266;52.166;5.290;2023-05-29T00:04:49;4.66;4.49;3.64;2.45;19.76;19.73;19.51;18.35;14.58;0.78
70689;SPS30;58266;52.166;5.290;2023-05-29T00:06:50;4.62;4.45;3.60;2.41;19.43;19.40;19.18;18.02;14.28;0.79
70689;SPS30;58266;52.166;5.290;2023-05-29T00:08:50;5.37;5.16;4.10;2.64;21.29;21.25;20.98;19.54;15.23;0.81
70689;SPS30;58266;52.166;5.290;2023-05-29T00:10:50;4.97;4.78;3.81;2.48;19.98;19.95;19.70;18.39;14.40;0.80
70689;SPS30;58266;52.166;5.290;2023-05-29T00:12:50;4.72;4.55;3.68;2.47;19.92;19.89;19.67;18.49;14.67;0.77
70689;SPS30;58266;52.166;5.290;2023-05-29T00:14:50;4.67;4.50;3.67;2.51;20.19;20.16;19.95;18.81;15.03;0.76
70689;SPS30;58266;52.166;5.290;2023-05-29T00:16:50;4.07;3.93;3.25;2.28;18.37;18.34;18.17;17.23;13.91;0.74
70689;SPS30;58266;52.166;5.290;2023-05-29T00:18:51;4.40;4.26;3.53;2.49;20.04;20.01;19.82;18.82;15.22;0.76
70689;SPS30;58266;52.166;5.290;2023-05-29T00:20:51;4.27;4.13;3.42;2.41;19.35;19.32;19.14;18.17;14.68;0.77
70689;SPS30;58266;52.166;5.290;2023-05-29T00:22:51;4.35;4.20;3.43;2.36;18.97;18.94;18.74;17.70;14.16;0.79
70689;SPS30;58266;52.166;5.290;2023-05-29T00:24:51;4.35;4.19;3.39;2.28;18.37;18.34;18.14;17.05;13.54;0.80
70689;SPS30;58266;52.166;5.290;2023-05-29T00:26:51;4.68;4.50;3.59;2.33;18.81;18.77;18.54;17.30;13.54;0.81
70689;SPS30;58266;52.166;5.290;2023-05-29T00:28:51;4.80;4.61;3.69;2.40;19.36;19.32;19.08;17.82;13.96;0.80
70689;SPS30;58266;52.166;5.290;2023-05-29T00:30:51;4.87;4.68;3.72;2.40;19.33;19.29;19.05;17.75;13.84;0.81
70689;SPS30;58266;52.166;5.290;2023-05-29T00:32:51;4.37;4.20;3.34;2.16;17.41;17.38;17.16;16.00;12.49;0.82
70689;SPS30;58266;52.166;5.290;2023-05-29T00:34:51;5.09;4.87;3.80;2.35;18.95;18.91;18.64;17.20;13.15;0.84
70689;SPS30;58266;52.166;5.290;2023-05-29T00:36:51;4.34;4.16;3.26;2.03;16.40;16.36;16.13;14.92;11.45;0.83
70689;SPS30;58266;52.166;5.290;2023-05-29T00:38:52;4.83;4.64;3.72;2.44;19.69;19.65;19.42;18.16;14.28;0.79
70689;SPS30;58266;52.166;5.290;2023-05-29T00:40:52;4.51;4.35;3.56;2.44;19.64;19.61;19.41;18.32;14.65;0.76
70689;SPS30;58266;52.166;5.290;2023-05-29T00:42:52;4.29;4.13;3.35;2.26;18.20;18.17;17.97;16.91;13.44;0.78
70689;SPS30;58266;52.166;5.290;2023-05-29T00:44:52;4.62;4.45;3.59;2.38;19.18;19.14;18.92;17.74;14.01;0.79
70689;SPS30;58266;52.166;5.290;2023-05-29T00:46:52;5.02;4.83;3.89;2.59;20.84;20.80;20.56;19.29;15.24;0.78
70689;SPS30;58266;52.166;5.290;2023-05-29T00:48:53;4.47;4.30;3.44;2.26;18.20;18.17;17.95;16.79;13.19;0.77
70689;SPS30;58266;52.166;5.290;2023-05-29T00:50:53;4.83;4.64;3.70;2.39;19.31;19.27;19.03;17.75;13.87;0.80
70689;SPS30;58266;52.166;5.290;2023-05-29T00:52:53;4.97;4.77;3.74;2.34;18.92;18.88;18.62;17.23;13.27;0.82
70689;SPS30;58266;52.166;5.290;2023-05-29T00:54:54;4.54;4.36;3.41;2.12;17.12;17.08;16.84;15.56;11.94;0.82
70689;SPS30;58266;52.166;5.290;2023-05-29T00:56:54;4.44;4.26;3.37;2.15;17.33;17.29;17.07;15.86;12.31;0.80
70689;SPS30;58266;52.166;5.290;2023-05-29T00:58:56;4.07;3.91;3.12;2.03;16.34;16.31;16.11;15.04;11.77;0.80
70689;SPS30;58266;52.166;5.290;2023-05-29T01:00:56;4.02;3.86;3.08;2.00;16.12;16.09;15.89;14.82;11.59;0.80
70689;SPS30;58266;52.166;5.290;2023-05-29T01:02:57;4.21;4.03;3.16;1.97;15.94;15.91;15.69;14.51;11.15;0.82
70689;SPS30;58266;52.166;5.290;2023-05-29T01:04:58;4.35;4.18;3.31;2.13;17.16;17.13;16.91;15.74;12.25;0.81
70689;SPS30;58266;52.166;5.290;2023-05-29T01:07:02;4.48;4.30;3.41;2.18;17.57;17.54;17.31;16.10;12.51;0.83
70689;SPS30;58266;52.166;5.290;2023-05-29T01:09:02;4.12;3.96;3.12;1.98;15.95;15.92;15.70;14.57;11.28;0.85
70689;SPS30;58266;52.166;5.290;2023-05-29T01:11:10;4.50;4.31;3.37;2.09;16.90;16.87;16.63;15.36;11.78;0.85
70689;SPS30;58266;52.166;5.290;2023-05-29T01:13:33;4.81;4.62;3.66;2.35;18.93;18.90;18.65;17.36;13.50;0.83
70689;SPS30;58266;52.166;5.290;2023-05-29T01:15:38;4.39;4.21;3.32;2.09;16.88;16.85;16.62;15.42;11.91;0.83
70689;SPS30;58266;52.166;5.290;2023-05-29T01:19:59;4.60;4.43;3.56;2.34;18.90;18.86;18.64;17.46;13.75;0.80
70689;SPS30;58266;52.166;5.290;2023-05-29T01:24:14;3.98;3.83;3.06;2.00;16.10;16.07;15.87;14.83;11.62;0.80
70689;SPS30;58266;52.166;5.290;2023-05-29T01:26:21;4.47;4.30;3.50;2.36;19.01;18.98;18.77;17.66;14.05;0.78
70689;SPS30;58266;52.166;5.290;2023-05-29T01:28:25;4.04;3.89;3.18;2.17;17.48;17.45;17.27;16.29;13.01;0.77
70689;SPS30;58266;52.166;5.290;2023-05-29T01:30:28;3.63;3.50;2.86;1.96;15.80;15.78;15.61;14.74;11.79;0.77
70689;SPS30;58266;52.166;5.290;2023-05-29T01:32:31;3.91;3.77;3.10;2.14;17.20;17.18;17.00;16.08;12.90;0.78
70689;SPS30;58266;52.166;5.290;2023-05-29T01:34:32;3.99;3.84;3.08;2.03;16.35;16.32;16.13;15.10;11.88;0.80
70689;SPS30;58266;52.166;5.290;2023-05-29T01:36:32;4.08;3.93;3.17;2.10;16.96;16.93;16.74;15.70;12.41;0.79
70689;SPS30;58266;52.166;5.290;2023-05-29T01:38:32;4.27;4.12;3.33;2.24;18.01;17.98;17.78;16.71;13.26;0.79
70689;SPS30;58266;52.166;5.290;2023-05-29T01:40:32;4.17;4.01;3.22;2.12;17.07;17.04;16.84;15.76;12.40;0.81
70689;SPS30;58266;52.166;5.290;2023-05-29T01:42:33;3.79;3.64;2.92;1.91;15.41;15.38;15.19;14.21;11.16;0.81
70689;SPS30;58266;52.166;5.290;2023-05-29T01:44:33;4.07;3.92;3.14;2.07;16.69;16.66;16.46;15.41;12.13;0.80
70689;SPS30;58266;52.166;5.290;2023-05-29T01:46:34;4.06;3.90;3.10;1.99;16.07;16.04;15.84;14.75;11.50;0.81
70689;SPS30;58266;52.166;5.290;2023-05-29T01:48:35;4.02;3.86;3.05;1.93;15.61;15.58;15.37;14.28;11.06;0.81
70689;SPS30;58266;52.166;5.290;2023-05-29T01:50:35;4.19;4.02;3.19;2.05;16.55;16.52;16.31;15.19;11.83;0.80
70689;SPS30;58266;52.166;5.290;2023-05-29T01:52:36;4.06;3.90;3.08;1.96;15.81;15.78;15.58;14.47;11.22;0.82
70689;SPS30;58266;52.166;5.290;2023-05-29T01:54:36;4.30;4.12;3.23;2.01;16.21;16.17;15.95;14.74;11.31;0.82
70689;SPS30;58266;52.166;5.290;2023-05-29T01:56:36;3.87;3.71;2.95;1.89;15.28;15.25;15.05;14.01;10.91;0.81
70689;SPS30;58266;52.166;5.290;2023-05-29T01:58:38;3.92;3.77;3.01;1.97;15.88;15.85;15.66;14.64;11.48;0.80
70689;SPS30;58266;52.166;5.290;2023-05-29T02:00:38;4.23;4.06;3.23;2.07;16.73;16.70;16.49;15.35;11.96;0.82
70689;SPS30;58266;52.166;5.290;2023-05-29T02:02:38;4.11;3.96;3.17;2.08;16.73;16.70;16.50;15.43;12.11;0.81
70689;SPS30;58266;52.166;5.290;2023-05-29T02:04:38;4.09;3.94;3.19;2.14;17.26;17.24;17.04;16.02;12.71;0.79
70689;SPS30;58266;52.166;5.290;2023-05-29T02:06:38;3.77;3.64;2.97;2.03;16.36;16.34;16.17;15.25;12.19;0.79
70689;SPS30;58266;52.166;5.290;2023-05-29T02:08:39;3.76;3.62;2.93;1.97;15.85;15.82;15.65;14.71;11.66;0.80
70689;SPS30;58266;52.166;5.290;2023-05-29T02:10:39;4.18;4.02;3.19;2.05;16.56;16.52;16.31;15.19;11.84;0.82
70689;SPS30;58266;52.166;5.290;2023-05-29T02:12:39;4.36;4.19;3.32;2.13;17.16;17.13;16.91;15.73;12.23;0.82
70689;SPS30;58266;52.166;5.290;2023-05-29T02:14:39;3.82;3.67;2.94;1.92;15.49;15.46;15.27;14.28;11.20;0.80
70689;SPS30;58266;52.166;5.290;2023-05-29T02:16:39;3.45;3.32;2.64;1.71;13.79;13.76;13.59;12.67;9.90;0.81
70689;SPS30;58266;52.166;5.290;2023-05-29T02:18:39;3.79;3.64;2.90;1.88;15.14;15.11;14.92;13.91;10.87;0.83
70689;SPS30;58266;52.166;5.290;2023-05-29T02:20:40;3.85;3.70;2.94;1.88;15.17;15.14;14.95;13.91;10.82;0.83
70689;SPS30;58266;52.166;5.290;2023-05-29T02:22:40;3.64;3.50;2.79;1.81;14.57;14.54;14.36;13.39;10.47;0.82
70689;SPS30;58266;52.166;5.290;2023-05-29T02:24:41;4.54;4.36;3.46;2.23;18.01;17.97;17.75;16.54;12.90;0.82
70689;SPS30;58266;52.166;5.290;2023-05-29T02:26:41;4.33;4.15;3.28;2.08;16.80;16.77;16.55;15.37;11.91;0.84
70689;SPS30;58266;52.166;5.290;2023-05-29T02:28:41;4.16;3.99;3.16;2.01;16.23;16.20;15.99;14.86;11.53;0.83
70689;SPS30;58266;52.166;5.290;2023-05-29T02:30:41;3.98;3.82;3.03;1.93;15.58;15.55;15.35;14.27;11.08;0.83
70689;SPS30;58266;52.166;5.290;2023-05-29T02:32:41;4.08;3.92;3.11;2.01;16.17;16.14;15.94;14.85;11.58;0.82
70689;SPS30;58266;52.166;5.290;2023-05-29T02:34:41;3.89;3.74;2.99;1.96;15.77;15.74;15.55;14.53;11.40;0.82
70689;SPS30;58266;52.166;5.290;2023-05-29T02:36:41;4.06;3.90;3.10;2.01;16.18;16.15;15.95;14.87;11.61;0.83
70689;SPS30;58266;52.166;5.290;2023-05-29T02:38:42;4.63;4.43;3.43;2.08;16.78;16.75;16.49;15.15;11.48;0.86
70689;SPS30;58266;52.166;5.290;2023-05-29T02:40:42;4.88;4.67;3.62;2.20;17.80;17.76;17.49;16.08;12.20;0.85
70689;SPS30;58266;52.166;5.290;2023-05-29T02:42:42;4.19;4.02;3.16;1.99;16.06;16.02;15.81;14.65;11.30;0.83
70689;SPS30;58266;52.166;5.290;2023-05-29T02:44:42;4.11;3.94;3.11;1.97;15.90;15.87;15.65;14.53;11.24;0.82
70689;SPS30;58266;52.166;5.290;2023-05-29T02:46:42;4.19;4.03;3.20;2.05;16.55;16.52;16.31;15.18;11.82;0.81
70689;SPS30;58266;52.166;5.290;2023-05-29T02:48:42;4.45;4.28;3.41;2.21;17.80;17.76;17.54;16.36;12.78;0.80
70689;SPS30;58266;52.166;5.290;2023-05-29T02:50:43;4.13;3.96;3.13;1.98;15.98;15.95;15.74;14.60;11.30;0.81
70689;SPS30;58266;52.166;5.290;2023-05-29T02:52:43;3.99;3.83;3.02;1.91;15.43;15.40;15.20;14.10;10.91;0.81
70689;SPS30;58266;52.166;5.290;2023-05-29T02:54:43;4.45;4.28;3.38;2.16;17.41;17.37;17.15;15.94;12.37;0.83
70689;SPS30;58266;52.166;5.290;2023-05-29T02:56:43;4.05;3.89;3.12;2.05;16.56;16.53;16.33;15.29;12.02;0.81
70689;SPS30;58266;52.166;5.290;2023-05-29T02:58:43;3.42;3.29;2.66;1.78;14.36;14.34;14.18;13.32;10.55;0.80
70689;SPS30;58266;52.166;5.290;2023-05-29T03:00:43;4.02;3.87;3.10;2.03;16.36;16.33;16.14;15.09;11.85;0.81
70689;SPS30;58266;52.166;5.290;2023-05-29T03:02:43;3.77;3.63;2.90;1.89;15.26;15.23;15.05;14.06;11.02;0.80
70689;SPS30;58266;52.166;5.290;2023-05-29T03:04:44;3.92;3.77;3.06;2.07;16.66;16.63;16.45;15.48;12.31;0.78
70689;SPS30;58266;52.166;5.290;2023-05-29T03:06:44;4.12;3.97;3.20;2.13;17.19;17.16;16.96;15.91;12.58;0.80
70689;SPS30;58266;52.166;5.290;2023-05-29T03:08:44;3.77;3.62;2.86;1.83;14.74;14.71;14.52;13.50;10.48;0.82
70689;SPS30;58266;52.166;5.290;2023-05-29T03:10:44;3.75;3.60;2.86;1.85;14.91;14.88;14.69;13.69;10.68;0.81
70689;SPS30;58266;52.166;5.290;2023-05-29T03:12:44;3.92;3.76;2.99;1.92;15.51;15.48;15.28;14.23;11.09;0.82
70689;SPS30;58266;52.166;5.290;2023-05-29T03:14:45;4.30;4.12;3.23;2.01;16.25;16.22;15.99;14.79;11.37;0.84
70689;SPS30;58266;52.166;5.290;2023-05-29T03:16:45;4.06;3.89;3.05;1.91;15.42;15.39;15.18;14.05;10.81;0.84
70689;SPS30;58266;52.166;5.290;2023-05-29T03:18:45;4.53;4.35;3.45;2.21;17.87;17.83;17.60;16.39;12.76;0.81
70689;SPS30;58266;52.166;5.290;2023-05-29T03:20:45;3.87;3.73;3.02;2.03;16.34;16.31;16.13;15.16;12.03;0.78
70689;SPS30;58266;52.166;5.290;2023-05-29T03:22:45;3.67;3.54;2.88;1.96;15.76;15.73;15.57;14.67;11.69;0.77
70689;SPS30;58266;52.166;5.290;2023-05-29T03:24:45;4.00;3.85;3.09;2.03;16.37;16.34;16.15;15.12;11.90;0.79
70689;SPS30;58266;52.166;5.290;2023-05-29T03:26:45;4.11;3.95;3.11;1.97;15.92;15.88;15.67;14.55;11.26;0.81
70689;SPS30;58266;52.166;5.290;2023-05-29T03:28:45;3.70;3.56;2.84;1.85;14.93;14.90;14.72;13.74;10.76;0.80
70689;SPS30;58266;52.166;5.290;2023-05-29T03:30:45;3.56;3.43;2.78;1.87;15.02;15.00;14.83;13.94;11.06;0.78
70689;SPS30;58266;52.166;5.290;2023-05-29T03:32:46;3.61;3.48;2.80;1.85;14.89;14.87;14.69;13.77;10.85;0.78
70689;SPS30;58266;52.166;5.290;2023-05-29T03:34:46;3.96;3.82;3.08;2.05;16.51;16.48;16.29;15.29;12.09;0.77
70689;SPS30;58266;52.166;5.290;2023-05-29T03:36:47;3.42;3.30;2.68;1.80;14.52;14.49;14.33;13.48;10.71;0.77
70689;SPS30;58266;52.166;5.290;2023-05-29T03:38:47;3.33;3.21;2.57;1.70;13.68;13.65;13.49;12.63;9.95;0.79
70689;SPS30;58266;52.166;5.290;2023-05-29T03:40:47;4.27;4.11;3.28;2.14;17.24;17.20;16.99;15.87;12.43;0.80
70689;SPS30;58266;52.166;5.290;2023-05-29T03:42:47;4.13;3.96;3.11;1.95;15.71;15.68;15.47;14.32;11.02;0.82
70689;SPS30;58266;52.166;5.290;2023-05-29T03:44:48;4.45;4.26;3.31;2.03;16.41;16.38;16.14;14.86;11.33;0.85
70689;SPS30;58266;52.166;5.290;2023-05-29T03:46:48;4.22;4.05;3.19;2.01;16.22;16.18;15.97;14.80;11.43;0.83
70689;SPS30;58266;52.166;5.290;2023-05-29T03:48:48;4.07;3.91;3.10;1.97;15.93;15.90;15.69;14.59;11.33;0.83
70689;SPS30;58266;52.166;5.290;2023-05-29T03:50:48;3.74;3.59;2.85;1.84;14.83;14.80;14.61;13.61;10.61;0.82
70689;SPS30;58266;52.166;5.290;2023-05-29T03:52:49;3.85;3.70;2.95;1.91;15.44;15.41;15.22;14.20;11.11;0.81
70689;SPS30;58266;52.166;5.290;2023-05-29T03:54:49;4.29;4.12;3.29;2.14;17.29;17.25;17.04;15.92;12.47;0.81
70689;SPS30;58266;52.166;5.290;2023-05-29T03:56:49;3.92;3.77;3.04;2.02;16.31;16.28;16.09;15.10;11.93;0.79
70689;SPS30;58266;52.166;5.290;2023-05-29T03:58:49;3.92;3.78;3.08;2.09;16.80;16.77;16.59;15.63;12.45;0.79
70689;SPS30;58266;52.166;5.290;2023-05-29T04:00:50;3.63;3.50;2.84;1.92;15.50;15.47;15.31;14.41;11.47;0.79
70689;SPS30;58266;52.166;5.290;2023-05-29T04:02:50;3.81;3.68;3.01;2.08;16.71;16.68;16.51;15.61;12.51;0.77
70689;SPS30;58266;52.166;5.290;2023-05-29T04:04:50;3.95;3.80;3.10;2.10;16.91;16.88;16.70;15.73;12.53;0.79
70689;SPS30;58266;52.166;5.290;2023-05-29T04:06:50;3.61;3.47;2.79;1.84;14.82;14.80;14.62;13.69;10.78;0.79
70689;SPS30;58266;52.166;5.290;2023-05-29T04:08:50;3.82;3.68;2.96;1.96;15.83;15.80;15.62;14.64;11.56;0.79
70689;SPS30;58266;52.166;5.290;2023-05-29T04:10:50;3.99;3.84;3.08;2.03;16.33;16.30;16.10;15.07;11.85;0.80
70689;SPS30;58266;52.166;5.290;2023-05-29T04:12:51;3.55;3.42;2.76;1.84;14.84;14.82;14.65;13.76;10.89;0.79
70689;SPS30;58266;52.166;5.290;2023-05-29T04:14:51;3.81;3.68;3.01;2.06;16.62;16.59;16.42;15.51;12.41;0.77
70689;SPS30;58266;52.166;5.290;2023-05-29T04:16:51;4.23;4.08;3.31;2.24;18.05;18.02;17.83;16.79;13.36;0.78
70689;SPS30;58266;52.166;5.290;2023-05-29T04:18:51;3.88;3.74;3.02;2.01;16.17;16.14;15.96;14.97;11.83;0.80
70689;SPS30;58266;52.166;5.290;2023-05-29T04:20:51;3.94;3.78;3.02;1.97;15.89;15.86;15.67;14.64;11.47;0.81
70689;SPS30;58266;52.166;5.290;2023-05-29T04:22:51;3.77;3.62;2.87;1.83;14.78;14.75;14.56;13.54;10.52;0.84
70689;SPS30;58266;52.166;5.290;2023-05-29T04:24:52;4.09;3.92;3.06;1.88;15.21;15.18;14.96;13.80;10.54;0.86
70689;SPS30;58266;52.166;5.290;2023-05-29T04:26:52;4.10;3.94;3.10;1.96;15.81;15.78;15.57;14.44;11.16;0.84
70689;SPS30;58266;52.166;5.290;2023-05-29T04:28:52;3.98;3.81;3.00;1.89;15.28;15.25;15.04;13.95;10.77;0.83
70689;SPS30;58266;52.166;5.290;2023-05-29T04:30:53;3.89;3.74;2.99;1.96;15.76;15.73;15.55;14.53;11.40;0.80
70689;SPS30;58266;52.166;5.290;2023-05-29T04:32:53;3.79;3.65;2.92;1.92;15.49;15.47;15.28;14.30;11.25;0.81
70689;SPS30;58266;52.166;5.290;2023-05-29T04:34:53;4.02;3.87;3.12;2.08;16.75;16.72;16.53;15.51;12.26;0.79
70689;SPS30;58266;52.166;5.290;2023-05-29T04:36:54;3.47;3.34;2.70;1.80;14.52;14.49;14.33;13.45;10.64;0.80
70689;SPS30;58266;52.166;5.290;2023-05-29T04:38:54;4.02;3.86;3.11;2.06;16.56;16.53;16.34;15.31;12.07;0.79
70689;SPS30;58266;52.166;5.290;2023-05-29T04:40:54;3.96;3.80;3.01;1.92;15.47;15.44;15.24;14.17;10.99;0.80
70689;SPS30;58266;52.166;5.290;2023-05-29T04:42:54;3.71;3.57;2.86;1.87;15.10;15.07;14.89;13.92;10.93;0.76
70689;SPS30;58266;52.166;5.290;2023-05-29T04:44:54;3.71;3.57;2.90;1.96;15.82;15.79;15.62;14.71;11.70;0.75
70689;SPS30;58266;52.166;5.290;2023-05-29T04:46:54;3.30;3.19;2.63;1.83;14.74;14.72;14.58;13.81;11.11;0.75
70689;SPS30;58266;52.166;5.290;2023-05-29T04:48:55;3.89;3.77;3.12;2.20;17.71;17.68;17.52;16.63;13.45;0.73
70689;SPS30;58266;52.166;5.290;2023-05-29T04:50:55;3.38;3.27;2.70;1.88;15.14;15.12;14.98;14.19;11.43;0.75
70689;SPS30;58266;52.166;5.290;2023-05-29T04:52:55;3.69;3.57;2.96;2.09;16.78;16.75;16.60;15.76;12.74;0.74
70689;SPS30;58266;52.166;5.290;2023-05-29T04:54:55;3.60;3.48;2.86;1.98;15.90;15.88;15.72;14.87;11.93;0.76
70689;SPS30;58266;52.166;5.290;2023-05-29T04:56:55;4.17;4.02;3.26;2.20;17.69;17.67;17.47;16.44;13.06;0.78
70689;SPS30;58266;52.166;5.290;2023-05-29T04:58:55;3.93;3.78;3.05;2.02;16.30;16.27;16.09;15.08;11.91;0.79
70689;SPS30;58266;52.166;5.290;2023-05-29T05:00:55;4.28;4.12;3.33;2.23;17.96;17.93;17.73;16.65;13.19;0.79
70689;SPS30;58266;52.166;5.290;2023-05-29T05:02:56;4.06;3.91;3.13;2.06;16.61;16.58;16.38;15.33;12.06;0.79
70689;SPS30;58266;52.166;5.290;2023-05-29T05:04:56;4.65;4.46;3.51;2.21;17.80;17.76;17.52;16.23;12.52;0.82
70689;SPS30;58266;52.166;5.290;2023-05-29T05:06:56;4.48;4.30;3.39;2.14;17.31;17.27;17.04;15.81;12.23;0.82
70689;SPS30;58266;52.166;5.290;2023-05-29T05:08:56;4.12;3.96;3.18;2.09;16.88;16.85;16.65;15.59;12.27;0.79
70689;SPS30;58266;52.166;5.290;2023-05-29T05:10:56;4.23;4.07;3.28;2.18;17.54;17.51;17.30;16.23;12.81;0.77
70689;SPS30;58266;52.166;5.290;2023-05-29T05:12:57;3.76;3.63;2.95;2.00;16.14;16.12;15.95;15.03;11.98;0.77
70689;SPS30;58266;52.166;5.290;2023-05-29T05:14:57;3.72;3.59;2.93;2.00;16.13;16.10;15.93;15.03;12.01;0.77
70689;SPS30;58266;52.166;5.290;2023-05-29T05:16:57;4.52;4.36;3.52;2.36;19.02;18.98;18.77;17.64;13.98;0.79
70689;SPS30;58266;52.166;5.290;2023-05-29T05:18:57;4.59;4.41;3.49;2.23;17.95;17.92;17.69;16.44;12.77;0.81
70689;SPS30;58266;52.166;5.290;2023-05-29T05:20:57;4.52;4.35;3.51;2.35;18.91;18.87;18.66;17.52;13.87;0.78
70689;SPS30;58266;52.166;5.290;2023-05-29T05:22:57;3.65;3.53;2.89;1.99;16.01;15.99;15.83;14.95;11.98;0.76
70689;SPS30;58266;52.166;5.290;2023-05-29T05:24:58;3.72;3.60;2.96;2.06;16.57;16.54;16.38;15.51;12.48;0.77
70689;SPS30;58266;52.166;5.290;2023-05-29T05:26:58;3.66;3.53;2.91;2.03;16.32;16.29;16.13;15.28;12.30;0.76
70689;SPS30;58266;52.166;5.290;2023-05-29T05:28:58;3.60;3.48;2.86;1.98;15.96;15.94;15.78;14.93;12.00;0.75
70689;SPS30;58266;52.166;5.290;2023-05-29T05:30:58;3.61;3.49;2.90;2.05;16.52;16.50;16.35;15.53;12.58;0.74
70689;SPS30;58266;52.166;5.290;2023-05-29T05:32:58;3.61;3.50;2.92;2.09;16.80;16.77;16.63;15.83;12.87;0.74
70689;SPS30;58266;52.166;5.290;2023-05-29T05:34:58;3.64;3.53;2.96;2.13;17.14;17.11;16.97;16.18;13.18;0.72
70689;SPS30;58266;52.166;5.290;2023-05-29T05:36:58;3.98;3.85;3.23;2.32;18.67;18.65;18.49;17.62;14.36;0.72
70689;SPS30;58266;52.166;5.290;2023-05-29T05:38:58;3.91;3.79;3.15;2.24;18.01;17.98;17.82;16.94;13.74;0.72
70689;SPS30;58266;52.166;5.290;2023-05-29T05:40:59;3.97;3.83;3.15;2.19;17.59;17.56;17.39;16.46;13.22;0.73
70689;SPS30;58266;52.166;5.290;2023-05-29T05:42:59;4.73;4.55;3.68;2.46;19.80;19.77;19.54;18.35;14.53;0.76
70689;SPS30;58266;52.166;5.290;2023-05-29T05:44:59;4.11;3.97;3.26;2.25;18.15;18.12;17.94;16.96;13.62;0.73
70689;SPS30;58266;52.166;5.290;2023-05-29T05:46:59;4.11;3.97;3.26;2.25;18.13;18.10;17.92;16.95;13.61;0.74
70689;SPS30;58266;52.166;5.290;2023-05-29T05:48:59;4.32;4.17;3.43;2.37;19.04;19.01;18.82;17.80;14.28;0.75
70689;SPS30;58266;52.166;5.290;2023-05-29T05:50:59;4.38;4.23;3.48;2.42;19.47;19.44;19.25;18.23;14.65;0.75
70689;SPS30;58266;52.166;5.290;2023-05-29T05:52:59;4.53;4.37;3.58;2.46;19.79;19.76;19.56;18.47;14.79;0.76
70689;SPS30;58266;52.166;5.290;2023-05-29T05:55:00;4.41;4.26;3.48;2.38;19.20;19.17;18.97;17.91;14.32;0.74
70689;SPS30;58266;52.166;5.290;2023-05-29T05:57:00;4.42;4.26;3.48;2.38;19.14;19.11;18.91;17.85;14.26;0.74
70689;SPS30;58266;52.166;5.290;2023-05-29T05:59:00;3.51;3.40;2.82;2.00;16.05;16.03;15.88;15.09;12.21;0.73
70689;SPS30;58266;52.166;5.290;2023-05-29T06:01:00;3.90;3.77;3.13;2.21;17.76;17.73;17.57;16.68;13.49;0.74
70689;SPS30;58266;52.166;5.290;2023-05-29T06:03:00;4.28;4.14;3.42;2.40;19.34;19.31;19.12;18.14;14.64;0.74
70689;SPS30;58266;52.166;5.290;2023-05-29T06:05:00;4.64;4.49;3.71;2.59;20.85;20.82;20.62;19.55;15.76;0.73
70689;SPS30;58266;52.166;5.290;2023-05-29T06:07:01;4.32;4.18;3.46;2.43;19.52;19.49;19.30;18.31;14.78;0.73
70689;SPS30;58266;52.166;5.290;2023-05-29T06:09:01;4.25;4.10;3.40;2.39;19.22;19.19;19.01;18.04;14.57;0.73
70689;SPS30;58266;52.166;5.290;2023-05-29T06:11:02;4.72;4.56;3.79;2.68;21.59;21.56;21.36;20.30;16.44;0.73
70689;SPS30;58266;52.166;5.290;2023-05-29T06:13:02;3.99;3.87;3.26;2.38;19.12;19.09;18.94;18.10;14.81;0.73
70689;SPS30;58266;52.166;5.290;2023-05-29T06:15:02;3.61;3.50;2.99;2.23;17.90;17.88;17.75;17.03;14.04;0.70
70689;SPS30;58266;52.166;5.290;2023-05-29T06:17:03;3.56;3.46;2.97;2.23;17.94;17.92;17.79;17.10;14.14;0.70
70689;SPS30;58266;52.166;5.290;2023-05-29T06:19:03;3.63;3.52;3.02;2.26;18.14;18.12;17.99;17.28;14.27;0.70
70689;SPS30;58266;52.166;5.290;2023-05-29T06:21:03;3.56;3.45;2.93;2.16;17.33;17.30;17.17;16.44;13.50;0.71
70689;SPS30;58266;52.166;5.290;2023-05-29T06:23:03;3.71;3.59;2.96;2.07;16.66;16.64;16.48;15.62;12.59;0.73
70689;SPS30;58266;52.166;5.290;2023-05-29T06:25:03;3.60;3.47;2.81;1.89;15.20;15.17;15.00;14.10;11.19;0.75
70689;SPS30;58266;52.166;5.290;2023-05-29T06:27:04;3.68;3.55;2.89;1.97;15.87;15.84;15.68;14.78;11.80;0.73
70689;SPS30;58266;52.166;5.290;2023-05-29T06:29:04;3.94;3.81;3.16;2.23;17.93;17.90;17.74;16.84;13.62;0.71
70689;SPS30;58266;52.166;5.290;2023-05-29T06:31:04;3.64;3.53;2.98;2.17;17.45;17.43;17.29;16.52;13.52;0.70
70689;SPS30;58266;52.166;5.290;2023-05-29T06:33:04;3.61;3.50;2.96;2.17;17.44;17.42;17.28;16.53;13.55;0.72
70689;SPS30;58266;52.166;5.290;2023-05-29T06:35:04;3.42;3.31;2.76;1.97;15.83;15.81;15.67;14.91;12.10;0.74
70689;SPS30;58266;52.166;5.290;2023-05-29T06:37:04;3.62;3.50;2.92;2.07;16.66;16.64;16.49;15.68;12.71;0.73
70689;SPS30;58266;52.166;5.290;2023-05-29T06:39:05;3.53;3.42;2.87;2.07;16.67;16.65;16.51;15.75;12.85;0.71
70689;SPS30;58266;52.166;5.290;2023-05-29T06:41:05;3.61;3.50;2.95;2.15;17.25;17.23;17.09;16.33;13.35;0.70
70689;SPS30;58266;52.166;5.290;2023-05-29T06:43:05;3.22;3.12;2.66;1.97;15.79;15.77;15.65;15.00;12.34;0.70
70689;SPS30;58266;52.166;5.290;2023-05-29T06:45:05;3.18;3.09;2.63;1.95;15.69;15.67;15.55;14.91;12.28;0.71
70689;SPS30;58266;52.166;5.290;2023-05-29T06:47:06;3.65;3.55;3.02;2.23;17.92;17.90;17.77;17.03;14.00;0.72
70689;SPS30;58266;52.166;5.290;2023-05-29T06:49:06;3.14;3.05;2.60;1.94;15.57;15.55;15.43;14.81;12.21;0.72
70689;SPS30;58266;52.166;5.290;2023-05-29T06:51:06;3.53;3.43;2.94;2.20;17.71;17.69;17.56;16.87;13.94;0.70
70689;SPS30;58266;52.166;5.290;2023-05-29T06:53:06;3.53;3.44;2.99;2.31;18.52;18.50;18.38;17.75;14.80;0.67
70689;SPS30;58266;52.166;5.290;2023-05-29T06:55:06;3.39;3.31;2.90;2.26;18.15;18.13;18.02;17.44;14.59;0.68
70689;SPS30;58266;52.166;5.290;2023-05-29T06:57:07;3.33;3.25;2.87;2.27;18.17;18.16;18.06;17.51;14.70;0.66
70689;SPS30;58266;52.166;5.290;2023-05-29T06:59:08;3.39;3.30;2.89;2.24;17.99;17.98;17.87;17.28;14.44;0.66
70689;SPS30;58266;52.166;5.290;2023-05-29T07:01:08;3.50;3.41;2.96;2.28;18.33;18.31;18.19;17.57;14.64;0.65
70689;SPS30;58266;52.166;5.290;2023-05-29T07:03:08;3.76;3.67;3.20;2.48;19.87;19.85;19.73;19.07;15.92;0.64
70689;SPS30;58266;52.166;5.290;2023-05-29T07:05:09;3.59;3.49;3.02;2.31;18.55;18.53;18.41;17.75;14.76;0.65
70689;SPS30;58266;52.166;5.290;2023-05-29T07:07:10;3.09;3.02;2.67;2.11;16.92;16.90;16.81;16.31;13.70;0.65
70689;SPS30;58266;52.166;5.290;2023-05-29T07:09:10;3.27;3.20;2.84;2.27;18.20;18.18;18.09;17.57;14.80;0.65
70689;SPS30;58266;52.166;5.290;2023-05-29T07:11:11;3.72;3.64;3.22;2.56;20.55;20.53;20.42;19.82;16.68;0.65
70689;SPS30;58266;52.166;5.290;2023-05-29T07:13:17;3.61;3.52;3.07;2.38;19.13;19.11;19.00;18.37;15.34;0.67
70689;SPS30;58266;52.166;5.290;2023-05-29T07:15:17;3.80;3.70;3.21;2.46;19.76;19.74;19.61;18.92;15.74;0.67
70689;SPS30;58266;52.166;5.290;2023-05-29T07:17:17;3.71;3.62;3.13;2.40;19.25;19.23;19.10;18.42;15.32;0.69
70689;SPS30;58266;52.166;5.290;2023-05-29T07:19:17;3.75;3.65;3.15;2.39;19.20;19.18;19.05;18.35;15.23;0.70
70689;SPS30;58266;52.166;5.290;2023-05-29T07:21:17;3.43;3.35;2.94;2.31;18.53;18.51;18.41;17.83;14.95;0.67
70689;SPS30;58266;52.166;5.290;2023-05-29T07:23:18;3.39;3.31;2.95;2.36;18.94;18.92;18.83;18.30;15.44;0.66
70689;SPS30;58266;52.166;5.290;2023-05-29T07:25:18;3.33;3.25;2.89;2.30;18.46;18.44;18.34;17.82;15.01;0.65
70689;SPS30;58266;52.166;5.290;2023-05-29T07:27:18;3.09;3.03;2.71;2.19;17.54;17.53;17.44;16.98;14.36;0.65
70689;SPS30;58266;52.166;5.290;2023-05-29T07:29:18;3.06;3.00;2.67;2.14;17.18;17.17;17.08;16.61;14.02;0.65
70689;SPS30;58266;52.166;5.290;2023-05-29T07:31:18;3.00;2.94;2.65;2.17;17.35;17.34;17.26;16.84;14.28;0.62
70689;SPS30;58266;52.166;5.290;2023-05-29T07:33:18;3.07;3.02;2.74;2.27;18.17;18.15;18.08;17.67;15.05;0.61
70689;SPS30;58266;52.166;5.290;2023-05-29T07:35:19;2.72;2.68;2.46;2.08;16.62;16.61;16.55;16.23;13.89;0.61